Archival Weather

Chicago O'Hare International

Chicago, Illinois (KORD)

Report from: Sunday, November 19, 2023 1:51 PM CST
Current time: Saturday, July 13, 2024 7:36 PM CDT

Current weather – Weather history – Daily summaries
Weather forecast

Temperature12.2°C (54.0°F)
Dew point1.7°C (35.1°F)
Winds 4 kts (2.1 m/s, 4.6 mph) East (90°)
Visibility10 mi. (16.1 km)
Clouds Few clouds 1,000 ft. (305 m)
Scattered clouds 25,000 ft. (7,620 m)
Altimeter30.04 in.Hg (1017 mB)
Relative humidity49 %
Density altitude-369 ft. (-112 m)
Sea-level pressure101.7 kPa (1017 mB, 30.04 in.Hg)
Remarks Automated weather observing station with precipitation discriminator
Flight conditions Visual Meteorological Conditions
Raw dataKORD 191951Z 09004KT 10SM FEW010 SCT250 12/02 A3004 RMK AO2 SLP174 FU FEW010 T01220017
An error has occurred. This application may no longer respond until reloaded. Reload 🗙